sensor_id;sensor_type;location;lat;lon;timestamp;temperature;humidity
44277;DHT22;29973;43.742;1.236;2023-04-01T00:00:50;10.30;99.90
44277;DHT22;29973;43.742;1.236;2023-04-01T00:03:17;10.40;99.90
44277;DHT22;29973;43.742;1.236;2023-04-01T00:05:43;10.30;99.90
44277;DHT22;29973;43.742;1.236;2023-04-01T00:08:09;10.30;99.90
44277;DHT22;29973;43.742;1.236;2023-04-01T00:10:34;10.30;99.90
44277;DHT22;29973;43.742;1.236;2023-04-01T00:13:00;10.50;99.90
44277;DHT22;29973;43.742;1.236;2023-04-01T00:15:26;10.50;99.90
44277;DHT22;29973;43.742;1.236;2023-04-01T00:17:51;10.40;99.90
44277;DHT22;29973;43.742;1.236;2023-04-01T00:20:17;10.30;99.90
44277;DHT22;29973;43.742;1.236;2023-04-01T00:22:43;10.30;99.90
44277;DHT22;29973;43.742;1.236;2023-04-01T00:25:09;10.30;99.90
44277;DHT22;29973;43.742;1.236;2023-04-01T00:27:34;10.10;99.90
44277;DHT22;29973;43.742;1.236;2023-04-01T00:30:00;10.00;99.90
44277;DHT22;29973;43.742;1.236;2023-04-01T00:32:26;9.90;99.90
44277;DHT22;29973;43.742;1.236;2023-04-01T00:34:52;9.80;99.90
44277;DHT22;29973;43.742;1.236;2023-04-01T00:37:19;9.70;99.90
44277;DHT22;29973;43.742;1.236;2023-04-01T00:39:47;9.70;99.90
44277;DHT22;29973;43.742;1.236;2023-04-01T00:42:13;9.80;99.90
44277;DHT22;29973;43.742;1.236;2023-04-01T00:44:39;9.70;99.90
44277;DHT22;29973;43.742;1.236;2023-04-01T00:47:05;9.90;99.90
44277;DHT22;29973;43.742;1.236;2023-04-01T00:49:34;10.00;99.90
44277;DHT22;29973;43.742;1.236;2023-04-01T00:52:02;10.10;99.90
44277;DHT22;29973;43.742;1.236;2023-04-01T00:54:30;10.20;99.90
44277;DHT22;29973;43.742;1.236;2023-04-01T00:57:04;10.20;99.90
44277;DHT22;29973;43.742;1.236;2023-04-01T00:59:37;10.40;99.90
44277;DHT22;29973;43.742;1.236;2023-04-01T01:02:07;10.40;99.90
44277;DHT22;29973;43.742;1.236;2023-04-01T01:04:34;10.40;99.90
44277;DHT22;29973;43.742;1.236;2023-04-01T01:07:33;10.20;99.90
44277;DHT22;29973;43.742;1.236;2023-04-01T01:10:19;10.10;99.90
44277;DHT22;29973;43.742;1.236;2023-04-01T01:26:53;9.80;99.90
44277;DHT22;29973;43.742;1.236;2023-04-01T01:32:25;10.10;99.90
44277;DHT22;29973;43.742;1.236;2023-04-01T01:35:16;10.20;99.90
44277;DHT22;29973;43.742;1.236;2023-04-01T01:37:40;10.40;99.90
44277;DHT22;29973;43.742;1.236;2023-04-01T01:40:10;10.40;99.90
44277;DHT22;29973;43.742;1.236;2023-04-01T01:42:40;10.30;99.90
44277;DHT22;29973;43.742;1.236;2023-04-01T01:45:09;10.20;99.90
44277;DHT22;29973;43.742;1.236;2023-04-01T01:47:36;10.20;99.90
44277;DHT22;29973;43.742;1.236;2023-04-01T01:50:03;10.20;99.90
44277;DHT22;29973;43.742;1.236;2023-04-01T01:52:30;10.30;99.90
44277;DHT22;29973;43.742;1.236;2023-04-01T01:54:57;10.30;99.90
44277;DHT22;29973;43.742;1.236;2023-04-01T01:57:27;10.30;99.90
44277;DHT22;29973;43.742;1.236;2023-04-01T01:59:56;10.30;99.90
44277;DHT22;29973;43.742;1.236;2023-04-01T02:02:25;10.40;99.90
44277;DHT22;29973;43.742;1.236;2023-04-01T02:04:51;10.30;99.90
44277;DHT22;29973;43.742;1.236;2023-04-01T02:07:28;10.40;99.90
44277;DHT22;29973;43.742;1.236;2023-04-01T02:09:56;10.30;99.90
44277;DHT22;29973;43.742;1.236;2023-04-01T02:12:22;10.30;99.90
44277;DHT22;29973;43.742;1.236;2023-04-01T02:15:06;10.20;99.90
44277;DHT22;29973;43.742;1.236;2023-04-01T02:17:35;10.00;99.90
44277;DHT22;29973;43.742;1.236;2023-04-01T02:20:04;9.90;99.90
44277;DHT22;29973;43.742;1.236;2023-04-01T02:22:38;9.90;99.90
44277;DHT22;29973;43.742;1.236;2023-04-01T02:25:10;9.80;99.90
44277;DHT22;29973;43.742;1.236;2023-04-01T02:27:37;9.70;99.90
44277;DHT22;29973;43.742;1.236;2023-04-01T02:30:04;9.70;99.90
44277;DHT22;29973;43.742;1.236;2023-04-01T02:32:31;9.80;99.90
44277;DHT22;29973;43.742;1.236;2023-04-01T02:34:58;9.80;99.90
44277;DHT22;29973;43.742;1.236;2023-04-01T02:37:28;9.70;99.90
44277;DHT22;29973;43.742;1.236;2023-04-01T02:39:54;9.70;99.90
44277;DHT22;29973;43.742;1.236;2023-04-01T02:42:20;9.60;99.90
44277;DHT22;29973;43.742;1.236;2023-04-01T02:44:45;9.80;99.90
44277;DHT22;29973;43.742;1.236;2023-04-01T02:47:11;9.80;99.90
44277;DHT22;29973;43.742;1.236;2023-04-01T02:49:37;9.70;99.90
44277;DHT22;29973;43.742;1.236;2023-04-01T02:52:02;9.60;99.90
44277;DHT22;29973;43.742;1.236;2023-04-01T02:54:28;9.50;99.90
44277;DHT22;29973;43.742;1.236;2023-04-01T02:56:54;9.60;99.90
44277;DHT22;29973;43.742;1.236;2023-04-01T02:59:20;9.40;99.90
44277;DHT22;29973;43.742;1.236;2023-04-01T03:01:45;9.40;99.90
44277;DHT22;29973;43.742;1.236;2023-04-01T03:04:11;9.30;99.90
44277;DHT22;29973;43.742;1.236;2023-04-01T03:06:37;9.20;99.90
44277;DHT22;29973;43.742;1.236;2023-04-01T03:09:02;9.00;99.90
44277;DHT22;29973;43.742;1.236;2023-04-01T03:11:28;9.10;99.90
44277;DHT22;29973;43.742;1.236;2023-04-01T03:13:54;9.10;99.90
44277;DHT22;29973;43.742;1.236;2023-04-01T03:16:20;9.10;99.90
44277;DHT22;29973;43.742;1.236;2023-04-01T03:18:45;9.00;99.90
44277;DHT22;29973;43.742;1.236;2023-04-01T03:21:16;9.20;99.90
44277;DHT22;29973;43.742;1.236;2023-04-01T03:23:42;9.10;99.90
44277;DHT22;29973;43.742;1.236;2023-04-01T03:26:07;9.30;99.90
44277;DHT22;29973;43.742;1.236;2023-04-01T03:28:33;9.20;99.90
44277;DHT22;29973;43.742;1.236;2023-04-01T03:30:59;9.20;99.90
44277;DHT22;29973;43.742;1.236;2023-04-01T03:33:25;9.20;99.90
44277;DHT22;29973;43.742;1.236;2023-04-01T03:35:50;9.30;99.90
44277;DHT22;29973;43.742;1.236;2023-04-01T03:38:17;9.40;99.90
44277;DHT22;29973;43.742;1.236;2023-04-01T03:40:44;9.40;99.90
44277;DHT22;29973;43.742;1.236;2023-04-01T03:43:09;9.50;99.90
44277;DHT22;29973;43.742;1.236;2023-04-01T03:45:42;9.60;99.90
44277;DHT22;29973;43.742;1.236;2023-04-01T03:48:08;9.70;99.90
44277;DHT22;29973;43.742;1.236;2023-04-01T03:50:34;9.70;99.90
44277;DHT22;29973;43.742;1.236;2023-04-01T03:53:00;9.60;99.90
44277;DHT22;29973;43.742;1.236;2023-04-01T03:55:26;9.60;99.90
44277;DHT22;29973;43.742;1.236;2023-04-01T03:57:52;9.70;99.90
44277;DHT22;29973;43.742;1.236;2023-04-01T04:00:18;9.70;99.90
44277;DHT22;29973;43.742;1.236;2023-04-01T04:02:44;9.70;99.90
44277;DHT22;29973;43.742;1.236;2023-04-01T04:05:10;9.70;99.90
44277;DHT22;29973;43.742;1.236;2023-04-01T04:07:36;9.70;99.90
44277;DHT22;29973;43.742;1.236;2023-04-01T04:10:02;9.70;99.90
44277;DHT22;29973;43.742;1.236;2023-04-01T04:12:28;9.70;99.90
44277;DHT22;29973;43.742;1.236;2023-04-01T04:14:54;9.70;99.90
44277;DHT22;29973;43.742;1.236;2023-04-01T04:17:20;9.70;99.90
44277;DHT22;29973;43.742;1.236;2023-04-01T04:19:45;9.80;99.90
44277;DHT22;29973;43.742;1.236;2023-04-01T04:22:11;9.90;99.90
44277;DHT22;29973;43.742;1.236;2023-04-01T04:24:37;9.90;99.90
44277;DHT22;29973;43.742;1.236;2023-04-01T04:27:03;9.80;99.90
44277;DHT22;29973;43.742;1.236;2023-04-01T04:29:29;9.90;99.90
44277;DHT22;29973;43.742;1.236;2023-04-01T04:31:55;9.90;99.90
44277;DHT22;29973;43.742;1.236;2023-04-01T04:34:21;10.00;99.90
44277;DHT22;29973;43.742;1.236;2023-04-01T04:36:48;10.10;99.90
44277;DHT22;29973;43.742;1.236;2023-04-01T04:39:14;10.00;99.90
44277;DHT22;29973;43.742;1.236;2023-04-01T04:41:40;10.10;99.90
44277;DHT22;29973;43.742;1.236;2023-04-01T04:44:06;10.10;99.90
44277;DHT22;29973;43.742;1.236;2023-04-01T04:46:32;10.10;99.90
44277;DHT22;29973;43.742;1.236;2023-04-01T04:48:58;10.00;99.90
44277;DHT22;29973;43.742;1.236;2023-04-01T04:51:25;10.00;99.90
44277;DHT22;29973;43.742;1.236;2023-04-01T04:53:51;10.00;99.90
44277;DHT22;29973;43.742;1.236;2023-04-01T04:56:21;9.90;99.90
44277;DHT22;29973;43.742;1.236;2023-04-01T04:58:47;9.90;99.90
44277;DHT22;29973;43.742;1.236;2023-04-01T05:01:15;9.90;99.90
44277;DHT22;29973;43.742;1.236;2023-04-01T05:03:41;9.80;99.90
44277;DHT22;29973;43.742;1.236;2023-04-01T05:06:09;9.90;99.90
44277;DHT22;29973;43.742;1.236;2023-04-01T05:08:35;9.80;99.90
44277;DHT22;29973;43.742;1.236;2023-04-01T05:11:02;9.80;99.90
44277;DHT22;29973;43.742;1.236;2023-04-01T05:13:28;9.80;99.90
44277;DHT22;29973;43.742;1.236;2023-04-01T05:15:54;9.80;99.90
44277;DHT22;29973;43.742;1.236;2023-04-01T05:18:20;9.80;99.90
44277;DHT22;29973;43.742;1.236;2023-04-01T05:20:50;9.80;99.90
44277;DHT22;29973;43.742;1.236;2023-04-01T05:23:16;9.80;99.90
44277;DHT22;29973;43.742;1.236;2023-04-01T05:25:43;9.70;99.90
44277;DHT22;29973;43.742;1.236;2023-04-01T05:28:08;9.70;99.90
44277;DHT22;29973;43.742;1.236;2023-04-01T05:30:34;9.70;99.90
44277;DHT22;29973;43.742;1.236;2023-04-01T05:33:00;9.70;99.90
44277;DHT22;29973;43.742;1.236;2023-04-01T05:35:26;9.70;99.90
44277;DHT22;29973;43.742;1.236;2023-04-01T05:37:53;9.70;99.90
44277;DHT22;29973;43.742;1.236;2023-04-01T05:40:18;9.90;99.90
44277;DHT22;29973;43.742;1.236;2023-04-01T05:42:44;10.00;99.90
44277;DHT22;29973;43.742;1.236;2023-04-01T05:45:10;10.00;99.90
44277;DHT22;29973;43.742;1.236;2023-04-01T05:47:36;10.00;99.90
44277;DHT22;29973;43.742;1.236;2023-04-01T05:50:01;10.10;99.90
44277;DHT22;29973;43.742;1.236;2023-04-01T05:52:27;10.10;99.90
44277;DHT22;29973;43.742;1.236;2023-04-01T05:54:53;10.10;99.90
44277;DHT22;29973;43.742;1.236;2023-04-01T05:57:18;10.00;99.90
44277;DHT22;29973;43.742;1.236;2023-04-01T05:59:44;10.00;99.90
44277;DHT22;29973;43.742;1.236;2023-04-01T06:02:11;10.00;99.90
44277;DHT22;29973;43.742;1.236;2023-04-01T06:04:40;10.10;99.90
44277;DHT22;29973;43.742;1.236;2023-04-01T06:07:17;10.20;99.90
44277;DHT22;29973;43.742;1.236;2023-04-01T06:09:44;10.20;99.90
44277;DHT22;29973;43.742;1.236;2023-04-01T06:18:03;10.20;99.90
44277;DHT22;29973;43.742;1.236;2023-04-01T06:31:33;10.40;99.90
44277;DHT22;29973;43.742;1.236;2023-04-01T06:36:38;10.50;99.90
44277;DHT22;29973;43.742;1.236;2023-04-01T06:48:21;10.70;99.90
44277;DHT22;29973;43.742;1.236;2023-04-01T06:54:07;10.50;99.90
44277;DHT22;29973;43.742;1.236;2023-04-01T06:56:37;10.60;99.90
44277;DHT22;29973;43.742;1.236;2023-04-01T06:59:15;10.70;99.90
44277;DHT22;29973;43.742;1.236;2023-04-01T07:02:00;10.80;99.90
44277;DHT22;29973;43.742;1.236;2023-04-01T07:04:30;10.90;99.90
44277;DHT22;29973;43.742;1.236;2023-04-01T07:07:01;10.90;99.90
44277;DHT22;29973;43.742;1.236;2023-04-01T07:09:34;10.90;99.90
44277;DHT22;29973;43.742;1.236;2023-04-01T07:12:06;11.00;99.90
44277;DHT22;29973;43.742;1.236;2023-04-01T07:14:39;11.00;99.90
44277;DHT22;29973;43.742;1.236;2023-04-01T07:17:26;11.00;99.90
44277;DHT22;29973;43.742;1.236;2023-04-01T07:20:05;11.10;99.90
44277;DHT22;29973;43.742;1.236;2023-04-01T07:22:40;11.10;99.90
44277;DHT22;29973;43.742;1.236;2023-04-01T07:25:17;11.10;99.90
44277;DHT22;29973;43.742;1.236;2023-04-01T07:27:45;11.20;99.90
44277;DHT22;29973;43.742;1.236;2023-04-01T07:30:21;11.40;99.90
44277;DHT22;29973;43.742;1.236;2023-04-01T07:46:05;11.70;99.90
44277;DHT22;29973;43.742;1.236;2023-04-01T07:48:43;11.80;99.90
44277;DHT22;29973;43.742;1.236;2023-04-01T07:51:28;12.00;99.90
44277;DHT22;29973;43.742;1.236;2023-04-01T07:56:50;11.90;99.90
44277;DHT22;29973;43.742;1.236;2023-04-01T07:59:26;12.20;99.90
44277;DHT22;29973;43.742;1.236;2023-04-01T08:05:05;13.20;99.90
44277;DHT22;29973;43.742;1.236;2023-04-01T08:08:40;13.50;99.90
44277;DHT22;29973;43.742;1.236;2023-04-01T08:10:55;13.60;99.90
44277;DHT22;29973;43.742;1.236;2023-04-01T08:24:29;12.90;99.90
44277;DHT22;29973;43.742;1.236;2023-04-01T08:27:01;13.10;99.90
44277;DHT22;29973;43.742;1.236;2023-04-01T08:29:40;13.30;99.90
44277;DHT22;29973;43.742;1.236;2023-04-01T08:32:13;13.10;99.90
44277;DHT22;29973;43.742;1.236;2023-04-01T08:34:45;13.20;99.90
44277;DHT22;29973;43.742;1.236;2023-04-01T08:37:19;13.30;99.90
44277;DHT22;29973;43.742;1.236;2023-04-01T08:45:15;10.60;99.90
44277;DHT22;29973;43.742;1.236;2023-04-01T09:11:50;13.40;99.90
44277;DHT22;29973;43.742;1.236;2023-04-01T09:20:14;13.10;99.90
44277;DHT22;29973;43.742;1.236;2023-04-01T09:24:08;13.40;99.90
44277;DHT22;29973;43.742;1.236;2023-04-01T09:26:25;13.70;99.90
44277;DHT22;29973;43.742;1.236;2023-04-01T09:43:05;13.90;99.90
44277;DHT22;29973;43.742;1.236;2023-04-01T10:03:12;15.00;99.90
44277;DHT22;29973;43.742;1.236;2023-04-01T10:09:05;15.70;99.90
44277;DHT22;29973;43.742;1.236;2023-04-01T10:36:48;15.70;99.90
44277;DHT22;29973;43.742;1.236;2023-04-01T10:42:29;16.20;99.90
44277;DHT22;29973;43.742;1.236;2023-04-01T10:48:18;15.40;99.90
44277;DHT22;29973;43.742;1.236;2023-04-01T10:53:49;14.90;99.90
44277;DHT22;29973;43.742;1.236;2023-04-01T10:56:38;14.50;99.90
44277;DHT22;29973;43.742;1.236;2023-04-01T11:19:09;11.00;99.90
44277;DHT22;29973;43.742;1.236;2023-04-01T11:22:07;11.50;99.90
44277;DHT22;29973;43.742;1.236;2023-04-01T11:30:16;13.00;99.90
44277;DHT22;29973;43.742;1.236;2023-04-01T11:33:00;13.90;99.90
44277;DHT22;29973;43.742;1.236;2023-04-01T11:40:58;15.40;99.90
44277;DHT22;29973;43.742;1.236;2023-04-01T11:43:39;15.00;99.90
44277;DHT22;29973;43.742;1.236;2023-04-01T11:46:16;15.50;99.90
44277;DHT22;29973;43.742;1.236;2023-04-01T11:57:26;14.50;99.90
44277;DHT22;29973;43.742;1.236;2023-04-01T12:08:16;13.80;99.90
44277;DHT22;29973;43.742;1.236;2023-04-01T12:21:37;14.70;99.90
44277;DHT22;29973;43.742;1.236;2023-04-01T12:27:26;14.70;99.90
44277;DHT22;29973;43.742;1.236;2023-04-01T12:50:23;9.20;99.90
44277;DHT22;29973;43.742;1.236;2023-04-01T12:55:43;9.40;99.90
44277;DHT22;29973;43.742;1.236;2023-04-01T13:21:31;10.40;99.90
44277;DHT22;29973;43.742;1.236;2023-04-01T13:29:41;13.30;99.90
44277;DHT22;29973;43.742;1.236;2023-04-01T13:32:20;12.10;99.90
44277;DHT22;29973;43.742;1.236;2023-04-01T13:42:59;12.00;99.90
44277;DHT22;29973;43.742;1.236;2023-04-01T14:07:49;12.60;99.90
44277;DHT22;29973;43.742;1.236;2023-04-01T14:16:47;12.90;99.90
44277;DHT22;29973;43.742;1.236;2023-04-01T14:22:48;10.30;99.90
44277;DHT22;29973;43.742;1.236;2023-04-01T14:50:20;10.00;99.90
44277;DHT22;29973;43.742;1.236;2023-04-01T14:55:36;9.70;99.90
44277;DHT22;29973;43.742;1.236;2023-04-01T14:58:13;9.90;99.90
44277;DHT22;29973;43.742;1.236;2023-04-01T15:05:52;9.70;99.90
44277;DHT22;29973;43.742;1.236;2023-04-01T15:08:32;9.60;99.90
44277;DHT22;29973;43.742;1.236;2023-04-01T15:14:17;9.20;99.90
44277;DHT22;29973;43.742;1.236;2023-04-01T15:17:15;9.30;99.90
44277;DHT22;29973;43.742;1.236;2023-04-01T15:25:29;10.20;99.90
44277;DHT22;29973;43.742;1.236;2023-04-01T15:30:37;9.80;99.90
44277;DHT22;29973;43.742;1.236;2023-04-01T16:10:06;12.70;99.90
44277;DHT22;29973;43.742;1.236;2023-04-01T16:18:16;11.90;99.90
44277;DHT22;29973;43.742;1.236;2023-04-01T16:24:00;12.20;99.90
44277;DHT22;29973;43.742;1.236;2023-04-01T16:27:01;12.10;99.90
44277;DHT22;29973;43.742;1.236;2023-04-01T16:32:23;12.00;99.90
44277;DHT22;29973;43.742;1.236;2023-04-01T16:41:14;9.40;99.90
44277;DHT22;29973;43.742;1.236;2023-04-01T16:46:38;10.20;99.90
44277;DHT22;29973;43.742;1.236;2023-04-01T16:54:24;9.90;99.90
44277;DHT22;29973;43.742;1.236;2023-04-01T17:01:53;9.80;99.90
44277;DHT22;29973;43.742;1.236;2023-04-01T17:07:17;9.80;99.90
44277;DHT22;29973;43.742;1.236;2023-04-01T17:29:17;9.60;99.90
44277;DHT22;29973;43.742;1.236;2023-04-01T17:43:03;9.10;99.90
44277;DHT22;29973;43.742;1.236;2023-04-01T17:45:37;9.20;99.90
44277;DHT22;29973;43.742;1.236;2023-04-01T17:58:55;8.90;99.90
44277;DHT22;29973;43.742;1.236;2023-04-01T18:01:34;8.80;99.90
44277;DHT22;29973;43.742;1.236;2023-04-01T18:04:29;9.00;99.90
44277;DHT22;29973;43.742;1.236;2023-04-01T18:07:05;8.50;99.90
44277;DHT22;29973;43.742;1.236;2023-04-01T18:15:42;8.20;99.90
44277;DHT22;29973;43.742;1.236;2023-04-01T18:25:45;8.50;99.90
44277;DHT22;29973;43.742;1.236;2023-04-01T18:34:11;8.50;99.90
44277;DHT22;29973;43.742;1.236;2023-04-01T18:36:50;8.60;99.90
44277;DHT22;29973;43.742;1.236;2023-04-01T18:39:42;8.40;99.90
44277;DHT22;29973;43.742;1.236;2023-04-01T18:45:20;8.10;99.90
44277;DHT22;29973;43.742;1.236;2023-04-01T18:48:37;8.00;99.90
44277;DHT22;29973;43.742;1.236;2023-04-01T18:53:35;7.90;99.90
44277;DHT22;29973;43.742;1.236;2023-04-01T18:56:06;8.00;99.90
44277;DHT22;29973;43.742;1.236;2023-04-01T18:58:36;8.00;99.90
44277;DHT22;29973;43.742;1.236;2023-04-01T19:04:23;7.90;99.90
44277;DHT22;29973;43.742;1.236;2023-04-01T19:06:54;7.80;99.90
44277;DHT22;29973;43.742;1.236;2023-04-01T19:09:29;7.70;99.90
44277;DHT22;29973;43.742;1.236;2023-04-01T19:25:38;7.40;99.90
44277;DHT22;29973;43.742;1.236;2023-04-01T19:34:02;7.60;99.90
44277;DHT22;29973;43.742;1.236;2023-04-01T19:36:37;7.70;99.90
44277;DHT22;29973;43.742;1.236;2023-04-01T19:45:11;7.50;99.90
44277;DHT22;29973;43.742;1.236;2023-04-01T19:50:58;7.40;99.90
44277;DHT22;29973;43.742;1.236;2023-04-01T19:53:31;7.50;99.90
44277;DHT22;29973;43.742;1.236;2023-04-01T20:00:58;7.40;99.90
44277;DHT22;29973;43.742;1.236;2023-04-01T20:03:28;7.40;99.90
44277;DHT22;29973;43.742;1.236;2023-04-01T20:06:04;7.40;99.90
44277;DHT22;29973;43.742;1.236;2023-04-01T20:13:57;7.50;99.90
44277;DHT22;29973;43.742;1.236;2023-04-01T20:16:49;7.30;99.90
44277;DHT22;29973;43.742;1.236;2023-04-01T20:19:39;7.40;99.90
44277;DHT22;29973;43.742;1.236;2023-04-01T20:22:20;7.60;99.90
44277;DHT22;29973;43.742;1.236;2023-04-01T20:24:51;7.30;99.90
44277;DHT22;29973;43.742;1.236;2023-04-01T20:27:22;7.40;99.90
44277;DHT22;29973;43.742;1.236;2023-04-01T20:30:18;7.40;99.90
44277;DHT22;29973;43.742;1.236;2023-04-01T20:44:13;7.10;99.90
44277;DHT22;29973;43.742;1.236;2023-04-01T20:46:53;7.00;99.90
44277;DHT22;29973;43.742;1.236;2023-04-01T21:11:35;7.10;99.90
44277;DHT22;29973;43.742;1.236;2023-04-01T21:20:41;6.90;99.90
44277;DHT22;29973;43.742;1.236;2023-04-01T21:31:15;6.70;99.90
44277;DHT22;29973;43.742;1.236;2023-04-01T21:56:02;6.70;99.90
44277;DHT22;29973;43.742;1.236;2023-04-01T22:01:35;6.80;99.90
44277;DHT22;29973;43.742;1.236;2023-04-01T22:13:35;6.80;99.90
44277;DHT22;29973;43.742;1.236;2023-04-01T22:32:29;6.50;99.90
44277;DHT22;29973;43.742;1.236;2023-04-01T22:41:30;6.50;99.90
44277;DHT22;29973;43.742;1.236;2023-04-01T22:43:42;6.50;99.90
44277;DHT22;29973;43.742;1.236;2023-04-01T22:49:21;6.50;99.90
44277;DHT22;29973;43.742;1.236;2023-04-01T22:57:32;6.40;99.90
44277;DHT22;29973;43.742;1.236;2023-04-01T23:00:03;6.20;99.90
44277;DHT22;29973;43.742;1.236;2023-04-01T23:02:37;6.20;99.90
44277;DHT22;29973;43.742;1.236;2023-04-01T23:05:05;6.20;99.90
44277;DHT22;29973;43.742;1.236;2023-04-01T23:10:49;6.30;99.90
44277;DHT22;29973;43.742;1.236;2023-04-01T23:13:27;6.40;99.90
44277;DHT22;29973;43.742;1.236;2023-04-01T23:15:55;6.20;99.90
44277;DHT22;29973;43.742;1.236;2023-04-01T23:18:25;6.20;99.90
44277;DHT22;29973;43.742;1.236;2023-04-01T23:20:55;6.30;99.90
44277;DHT22;29973;43.742;1.236;2023-04-01T23:29:17;6.10;99.90
44277;DHT22;29973;43.742;1.236;2023-04-01T23:32:03;6.20;99.90
44277;DHT22;29973;43.742;1.236;2023-04-01T23:34:34;6.20;99.90
44277;DHT22;29973;43.742;1.236;2023-04-01T23:37:13;6.30;99.90
44277;DHT22;29973;43.742;1.236;2023-04-01T23:40:00;6.00;99.90
44277;DHT22;29973;43.742;1.236;2023-04-01T23:42:31;6.10;99.90
44277;DHT22;29973;43.742;1.236;2023-04-01T23:45:03;6.00;99.90
44277;DHT22;29973;43.742;1.236;2023-04-01T23:47:33;6.10;99.90
44277;DHT22;29973;43.742;1.236;2023-04-01T23:50:09;6.10;99.90
44277;DHT22;29973;43.742;1.236;2023-04-01T23:52:40;6.10;99.90
44277;DHT22;29973;43.742;1.236;2023-04-01T23:55:14;6.00;99.90
44277;DHT22;29973;43.742;1.236;2023-04-01T23:57:42;6.10;99.90
